Tetonia, Idaho
Current Conditions -  °F | °C
As of 7:56 AM on Wednesday 22 Oct 2014 (Local Time) from KDIJ Reporting Station
Clear Clear  
Wind Chill: 28°   Ceiling: Unl
Heat Index: 28°   Visibility: 10mi
Dew Point: 25°   Wind: 3mph
Humidity: 89%   Direction: 30°NNE
Pressure: 30.19"   Gusts: NA
Location:  43.82°N, 111.16°W
Report Text: KDIJ 221356Z AUTO 03003KT 10SM CLR M02/M04 A3019 RMK AO2 T10221038 SLP212
Loading
Personal Weather Stations






























Interactive Weather Map
Tropical Storm Tracking
New forecast layout! Learn more

10-Day Weather Forecast

Advertisements
Track Severe Weather on mobile